Aeroporto :
LOGIN :

Iscrizione | Disclaimer

   EN    FR    IT 

 










Sommario :    VFR   VFR Marginale   IFR   IFR Intensivo   IFR Molto Intensivo
Visibilità : 
Base nubi : 
>= 8 km
>= 3000ft
5 / 8 km
1000 / 3000 ft
1500m / 5 km
500 / 1000 ft
800 / 1500m
200 / 500 ft
< 800m
< 200 ft
Simboli :   Temporali  Nebbia  Neve Forte  Precipitazioni Forti  Vento > 20 kt
SIGMETs :   Varie  Temporali  Ghiacco  Turbolenza  Onda orograficha  Ceneri Vulcaniche






- Altitudine del aeroporto : 124 ft
- Codice IATA : AVN


LFMV - Avignon Caumont

ULTIMO METAR :
  • 132300Z AUTO 34005KT CAVOK 23/16 Q1015

METARs OBSOLETI :
  • 132230Z AUTO 36003KT CAVOK 23/16 Q1015
  • 132200Z AUTO 34005KT CAVOK 24/16 Q1015
  • 132130Z AUTO 34006KT CAVOK 25/16 Q1015
  • 132100Z AUTO 34003KT CAVOK 25/17 Q1014
  • 132030Z AUTO VRB01KT CAVOK 26/19 Q1014

TAF TAF LFMV
Valido dal 13 a 15 ore il 14 a 15 ore UTC


131400Z 1315/1415 20015KT CAVOK
PROB40
TEMPO 1315/1318 SHRA FEW050CB
BECMG 1317/1320 VRB03KT
BECMG 1405/1407 34010KT
ATIS : +33 4 90 84 32 84



MetMap, La meteo Aeronautica in un colpo d'occhio ! - Copyright ORBIFLY Dicembre 2007 - Disclaimer

ORBIFLY MET'MAP TEAM :

Programmazione e sviluppo : Alexandra Zaïnal
Concezione : Baudouin d'Aumeries
Aiuto per la programmazione : Marc-Olivier Méhu
Supporto tecnico e logistico : Manuel Goepfert
Aiuto per la traduzione : Arnaldo La Scala

Contatto : metmap@orbifly.com




FONTI E CREDITI :

   NOAA